<?xml version="1.0" encoding="UTF-8" standalone="no" ?>
<gpx xmlns="http://www.topografix.com/GPX/1/1" xmlns:xsi="http://www.w3.org/2001/XMLSchema-instance" xsi:schemaLocation="http://www.topografix.com/GPX/1/1 http://www.topografix.com/GPX/1/1/gpx.xsd" version="1.1" creator="VisuGPX - https://www.visugpx.com">
  <metadata>
    <name>Chandeleur 2024 8 km</name>
  </metadata>
  <trk>
    <name><![CDATA[randonnée de la chandeleur-16019974]]></name>
    <trkseg>
      <trkpt lat="47.80333" lon="1.0347">
        <ele>82</ele>
        <time>2024-01-16T15:25:11Z</time>
      </trkpt>
      <trkpt lat="47.80327" lon="1.03371">
        <ele>84</ele>
        <time>2024-01-16T15:26:40Z</time>
      </trkpt>
      <trkpt lat="47.80321" lon="1.03292">
        <ele>86</ele>
        <time>2024-01-16T15:27:51Z</time>
      </trkpt>
      <trkpt lat="47.8031" lon="1.03251">
        <ele>86</ele>
        <time>2024-01-16T15:28:31Z</time>
      </trkpt>
      <trkpt lat="47.80301" lon="1.03232">
        <ele>86</ele>
        <time>2024-01-16T15:28:52Z</time>
      </trkpt>
      <trkpt lat="47.80279" lon="1.03196">
        <ele>85</ele>
        <time>2024-01-16T15:29:35Z</time>
      </trkpt>
      <trkpt lat="47.8024" lon="1.03131">
        <ele>82</ele>
        <time>2024-01-16T15:30:54Z</time>
      </trkpt>
      <trkpt lat="47.802" lon="1.03063">
        <ele>83</ele>
        <time>2024-01-16T15:32:15Z</time>
      </trkpt>
      <trkpt lat="47.8016" lon="1.02993">
        <ele>82</ele>
        <time>2024-01-16T15:33:37Z</time>
      </trkpt>
      <trkpt lat="47.8012" lon="1.02922">
        <ele>84</ele>
        <time>2024-01-16T15:35:00Z</time>
      </trkpt>
      <trkpt lat="47.80104" lon="1.02895">
        <ele>85</ele>
        <time>2024-01-16T15:35:32Z</time>
      </trkpt>
      <trkpt lat="47.80084" lon="1.02867">
        <ele>85</ele>
        <time>2024-01-16T15:36:09Z</time>
      </trkpt>
      <trkpt lat="47.80077" lon="1.0286">
        <ele>85</ele>
        <time>2024-01-16T15:36:20Z</time>
      </trkpt>
      <trkpt lat="47.80071" lon="1.02856">
        <ele>85</ele>
        <time>2024-01-16T15:36:29Z</time>
      </trkpt>
      <trkpt lat="47.80064" lon="1.02854">
        <ele>85</ele>
        <time>2024-01-16T15:36:38Z</time>
      </trkpt>
      <trkpt lat="47.80057" lon="1.02831">
        <ele>86</ele>
        <time>2024-01-16T15:37:01Z</time>
      </trkpt>
      <trkpt lat="47.80034" lon="1.02796">
        <ele>87</ele>
        <time>2024-01-16T15:37:45Z</time>
      </trkpt>
      <trkpt lat="47.79994" lon="1.02737">
        <ele>84</ele>
        <time>2024-01-16T15:39:00Z</time>
      </trkpt>
      <trkpt lat="47.79988" lon="1.02732">
        <ele>85</ele>
        <time>2024-01-16T15:39:09Z</time>
      </trkpt>
      <trkpt lat="47.79987" lon="1.02729">
        <ele>85</ele>
        <time>2024-01-16T15:39:12Z</time>
      </trkpt>
      <trkpt lat="47.79982" lon="1.02677">
        <ele>91</ele>
        <time>2024-01-16T15:39:59Z</time>
      </trkpt>
      <trkpt lat="47.79974" lon="1.02634">
        <ele>95</ele>
        <time>2024-01-16T15:40:39Z</time>
      </trkpt>
      <trkpt lat="47.79974" lon="1.02633">
        <ele>95</ele>
        <time>2024-01-16T15:40:40Z</time>
      </trkpt>
      <trkpt lat="47.79974" lon="1.02634">
        <ele>95</ele>
        <time>2024-01-16T15:40:41Z</time>
      </trkpt>
      <trkpt lat="47.79974" lon="1.02622">
        <ele>96</ele>
        <time>2024-01-16T15:40:52Z</time>
      </trkpt>
      <trkpt lat="47.7997" lon="1.02597">
        <ele>99</ele>
        <time>2024-01-16T15:41:15Z</time>
      </trkpt>
      <trkpt lat="47.79969" lon="1.02583">
        <ele>100</ele>
        <time>2024-01-16T15:41:28Z</time>
      </trkpt>
      <trkpt lat="47.7996" lon="1.02537">
        <ele>102</ele>
        <time>2024-01-16T15:42:11Z</time>
      </trkpt>
      <trkpt lat="47.79958" lon="1.02522">
        <ele>104</ele>
        <time>2024-01-16T15:42:24Z</time>
      </trkpt>
      <trkpt lat="47.79955" lon="1.02483">
        <ele>106</ele>
        <time>2024-01-16T15:42:59Z</time>
      </trkpt>
      <trkpt lat="47.79959" lon="1.02457">
        <ele>108</ele>
        <time>2024-01-16T15:43:23Z</time>
      </trkpt>
      <trkpt lat="47.79965" lon="1.0244">
        <ele>110</ele>
        <time>2024-01-16T15:43:41Z</time>
      </trkpt>
      <trkpt lat="47.79973" lon="1.02422">
        <ele>113</ele>
        <time>2024-01-16T15:44:00Z</time>
      </trkpt>
      <trkpt lat="47.79962" lon="1.02406">
        <ele>112</ele>
        <time>2024-01-16T15:44:20Z</time>
      </trkpt>
      <trkpt lat="47.79938" lon="1.02342">
        <ele>114</ele>
        <time>2024-01-16T15:45:26Z</time>
      </trkpt>
      <trkpt lat="47.79938" lon="1.02342">
        <ele>114</ele>
        <time>2024-01-16T15:45:26Z</time>
      </trkpt>
      <trkpt lat="47.79938" lon="1.02342">
        <ele>114</ele>
        <time>2024-01-16T15:45:26Z</time>
      </trkpt>
      <trkpt lat="47.79969" lon="1.02283">
        <ele>120</ele>
        <time>2024-01-16T15:46:33Z</time>
      </trkpt>
      <trkpt lat="47.79961" lon="1.02275">
        <ele>121</ele>
        <time>2024-01-16T15:46:46Z</time>
      </trkpt>
      <trkpt lat="47.79948" lon="1.02244">
        <ele>122</ele>
        <time>2024-01-16T15:47:19Z</time>
      </trkpt>
      <trkpt lat="47.79947" lon="1.0223">
        <ele>122</ele>
        <time>2024-01-16T15:47:31Z</time>
      </trkpt>
      <trkpt lat="47.79949" lon="1.02223">
        <ele>123</ele>
        <time>2024-01-16T15:47:38Z</time>
      </trkpt>
      <trkpt lat="47.79945" lon="1.02211">
        <ele>123</ele>
        <time>2024-01-16T15:47:50Z</time>
      </trkpt>
      <trkpt lat="47.79911" lon="1.02147">
        <ele>123</ele>
        <time>2024-01-16T15:49:03Z</time>
      </trkpt>
      <trkpt lat="47.79869" lon="1.02065">
        <ele>121</ele>
        <time>2024-01-16T15:50:36Z</time>
      </trkpt>
      <trkpt lat="47.79825" lon="1.01981">
        <ele>118</ele>
        <time>2024-01-16T15:52:11Z</time>
      </trkpt>
      <trkpt lat="47.79824" lon="1.0198">
        <ele>118</ele>
        <time>2024-01-16T15:52:13Z</time>
      </trkpt>
      <trkpt lat="47.79852" lon="1.01956">
        <ele>120</ele>
        <time>2024-01-16T15:52:56Z</time>
      </trkpt>
      <trkpt lat="47.79832" lon="1.01878">
        <ele>117</ele>
        <time>2024-01-16T15:54:11Z</time>
      </trkpt>
      <trkpt lat="47.79806" lon="1.01783">
        <ele>113</ele>
        <time>2024-01-16T15:55:43Z</time>
      </trkpt>
      <trkpt lat="47.7978" lon="1.01685">
        <ele>110</ele>
        <time>2024-01-16T15:57:17Z</time>
      </trkpt>
      <trkpt lat="47.79769" lon="1.01643">
        <ele>108</ele>
        <time>2024-01-16T15:57:58Z</time>
      </trkpt>
      <trkpt lat="47.79767" lon="1.01643">
        <ele>108</ele>
        <time>2024-01-16T15:58:00Z</time>
      </trkpt>
      <trkpt lat="47.79726" lon="1.0164">
        <ele>105</ele>
        <time>2024-01-16T15:58:55Z</time>
      </trkpt>
      <trkpt lat="47.79686" lon="1.01637">
        <ele>102</ele>
        <time>2024-01-16T15:59:49Z</time>
      </trkpt>
      <trkpt lat="47.79644" lon="1.01634">
        <ele>100</ele>
        <time>2024-01-16T16:00:45Z</time>
      </trkpt>
      <trkpt lat="47.79617" lon="1.01633">
        <ele>99</ele>
        <time>2024-01-16T16:01:21Z</time>
      </trkpt>
      <trkpt lat="47.7964" lon="1.01541">
        <ele>100</ele>
        <time>2024-01-16T16:02:49Z</time>
      </trkpt>
      <trkpt lat="47.79671" lon="1.01463">
        <ele>99</ele>
        <time>2024-01-16T16:04:10Z</time>
      </trkpt>
      <trkpt lat="47.79706" lon="1.01413">
        <ele>98</ele>
        <time>2024-01-16T16:05:15Z</time>
      </trkpt>
      <trkpt lat="47.79739" lon="1.01382">
        <ele>99</ele>
        <time>2024-01-16T16:06:07Z</time>
      </trkpt>
      <trkpt lat="47.79785" lon="1.01292">
        <ele>102</ele>
        <time>2024-01-16T16:07:48Z</time>
      </trkpt>
      <trkpt lat="47.79833" lon="1.01306">
        <ele>106</ele>
        <time>2024-01-16T16:08:54Z</time>
      </trkpt>
      <trkpt lat="47.7988" lon="1.01321">
        <ele>110</ele>
        <time>2024-01-16T16:09:58Z</time>
      </trkpt>
      <trkpt lat="47.79923" lon="1.01322">
        <ele>113</ele>
        <time>2024-01-16T16:10:55Z</time>
      </trkpt>
      <trkpt lat="47.79973" lon="1.01319">
        <ele>116</ele>
        <time>2024-01-16T16:12:02Z</time>
      </trkpt>
      <trkpt lat="47.79969" lon="1.01401">
        <ele>112</ele>
        <time>2024-01-16T16:13:16Z</time>
      </trkpt>
      <trkpt lat="47.79968" lon="1.0142">
        <ele>112</ele>
        <time>2024-01-16T16:13:33Z</time>
      </trkpt>
      <trkpt lat="47.80017" lon="1.01432">
        <ele>113</ele>
        <time>2024-01-16T16:14:39Z</time>
      </trkpt>
      <trkpt lat="47.80066" lon="1.01445">
        <ele>114</ele>
        <time>2024-01-16T16:15:45Z</time>
      </trkpt>
      <trkpt lat="47.80115" lon="1.01455">
        <ele>114</ele>
        <time>2024-01-16T16:16:51Z</time>
      </trkpt>
      <trkpt lat="47.80164" lon="1.01462">
        <ele>115</ele>
        <time>2024-01-16T16:17:57Z</time>
      </trkpt>
      <trkpt lat="47.80213" lon="1.01469">
        <ele>115</ele>
        <time>2024-01-16T16:19:03Z</time>
      </trkpt>
      <trkpt lat="47.80256" lon="1.01488">
        <ele>115</ele>
        <time>2024-01-16T16:20:03Z</time>
      </trkpt>
      <trkpt lat="47.80282" lon="1.01499">
        <ele>116</ele>
        <time>2024-01-16T16:20:39Z</time>
      </trkpt>
      <trkpt lat="47.80282" lon="1.01495">
        <ele>116</ele>
        <time>2024-01-16T16:20:42Z</time>
      </trkpt>
      <trkpt lat="47.80287" lon="1.0149">
        <ele>116</ele>
        <time>2024-01-16T16:20:50Z</time>
      </trkpt>
      <trkpt lat="47.80323" lon="1.01483">
        <ele>118</ele>
        <time>2024-01-16T16:21:39Z</time>
      </trkpt>
      <trkpt lat="47.80371" lon="1.01467">
        <ele>122</ele>
        <time>2024-01-16T16:22:44Z</time>
      </trkpt>
      <trkpt lat="47.8042" lon="1.01451">
        <ele>125</ele>
        <time>2024-01-16T16:23:51Z</time>
      </trkpt>
      <trkpt lat="47.80469" lon="1.01435">
        <ele>127</ele>
        <time>2024-01-16T16:24:58Z</time>
      </trkpt>
      <trkpt lat="47.80505" lon="1.01427">
        <ele>129</ele>
        <time>2024-01-16T16:25:47Z</time>
      </trkpt>
      <trkpt lat="47.80542" lon="1.01437">
        <ele>129</ele>
        <time>2024-01-16T16:26:37Z</time>
      </trkpt>
      <trkpt lat="47.80567" lon="1.01455">
        <ele>129</ele>
        <time>2024-01-16T16:27:14Z</time>
      </trkpt>
      <trkpt lat="47.8059" lon="1.01489">
        <ele>129</ele>
        <time>2024-01-16T16:27:57Z</time>
      </trkpt>
      <trkpt lat="47.80629" lon="1.01561">
        <ele>129</ele>
        <time>2024-01-16T16:29:20Z</time>
      </trkpt>
      <trkpt lat="47.80633" lon="1.0157">
        <ele>129</ele>
        <time>2024-01-16T16:29:30Z</time>
      </trkpt>
      <trkpt lat="47.80639" lon="1.01575">
        <ele>129</ele>
        <time>2024-01-16T16:29:39Z</time>
      </trkpt>
      <trkpt lat="47.80616" lon="1.01591">
        <ele>128</ele>
        <time>2024-01-16T16:30:13Z</time>
      </trkpt>
      <trkpt lat="47.80598" lon="1.01608">
        <ele>127</ele>
        <time>2024-01-16T16:30:41Z</time>
      </trkpt>
      <trkpt lat="47.80581" lon="1.01624">
        <ele>126</ele>
        <time>2024-01-16T16:31:08Z</time>
      </trkpt>
      <trkpt lat="47.80564" lon="1.0164">
        <ele>125</ele>
        <time>2024-01-16T16:31:35Z</time>
      </trkpt>
      <trkpt lat="47.80547" lon="1.01656">
        <ele>125</ele>
        <time>2024-01-16T16:32:02Z</time>
      </trkpt>
      <trkpt lat="47.80536" lon="1.01669">
        <ele>124</ele>
        <time>2024-01-16T16:32:21Z</time>
      </trkpt>
      <trkpt lat="47.80528" lon="1.01683">
        <ele>124</ele>
        <time>2024-01-16T16:32:37Z</time>
      </trkpt>
      <trkpt lat="47.8052" lon="1.01707">
        <ele>124</ele>
        <time>2024-01-16T16:33:01Z</time>
      </trkpt>
      <trkpt lat="47.8051" lon="1.01725">
        <ele>124</ele>
        <time>2024-01-16T16:33:22Z</time>
      </trkpt>
      <trkpt lat="47.80497" lon="1.0174">
        <ele>123</ele>
        <time>2024-01-16T16:33:44Z</time>
      </trkpt>
      <trkpt lat="47.80458" lon="1.01784">
        <ele>122</ele>
        <time>2024-01-16T16:34:49Z</time>
      </trkpt>
      <trkpt lat="47.80419" lon="1.01828">
        <ele>124</ele>
        <time>2024-01-16T16:35:55Z</time>
      </trkpt>
      <trkpt lat="47.80428" lon="1.01842">
        <ele>124</ele>
        <time>2024-01-16T16:36:12Z</time>
      </trkpt>
      <trkpt lat="47.8039" lon="1.01916">
        <ele>131</ele>
        <time>2024-01-16T16:37:35Z</time>
      </trkpt>
      <trkpt lat="47.80386" lon="1.01923">
        <ele>131</ele>
        <time>2024-01-16T16:37:44Z</time>
      </trkpt>
      <trkpt lat="47.8036" lon="1.0195">
        <ele>131</ele>
        <time>2024-01-16T16:38:26Z</time>
      </trkpt>
      <trkpt lat="47.80336" lon="1.01959">
        <ele>131</ele>
        <time>2024-01-16T16:38:59Z</time>
      </trkpt>
      <trkpt lat="47.80313" lon="1.01881">
        <ele>131</ele>
        <time>2024-01-16T16:40:15Z</time>
      </trkpt>
      <trkpt lat="47.80292" lon="1.01821">
        <ele>130</ele>
        <time>2024-01-16T16:41:16Z</time>
      </trkpt>
      <trkpt lat="47.80252" lon="1.01777">
        <ele>130</ele>
        <time>2024-01-16T16:42:22Z</time>
      </trkpt>
      <trkpt lat="47.80226" lon="1.01747">
        <ele>130</ele>
        <time>2024-01-16T16:43:06Z</time>
      </trkpt>
      <trkpt lat="47.80223" lon="1.01714">
        <ele>128</ele>
        <time>2024-01-16T16:43:36Z</time>
      </trkpt>
      <trkpt lat="47.80211" lon="1.01689">
        <ele>127</ele>
        <time>2024-01-16T16:44:04Z</time>
      </trkpt>
      <trkpt lat="47.802" lon="1.01683">
        <ele>126</ele>
        <time>2024-01-16T16:44:19Z</time>
      </trkpt>
      <trkpt lat="47.8016" lon="1.01685">
        <ele>126</ele>
        <time>2024-01-16T16:45:13Z</time>
      </trkpt>
      <trkpt lat="47.8012" lon="1.01686">
        <ele>124</ele>
        <time>2024-01-16T16:46:06Z</time>
      </trkpt>
      <trkpt lat="47.80104" lon="1.01686">
        <ele>123</ele>
        <time>2024-01-16T16:46:27Z</time>
      </trkpt>
      <trkpt lat="47.80106" lon="1.0177">
        <ele>128</ele>
        <time>2024-01-16T16:47:43Z</time>
      </trkpt>
      <trkpt lat="47.8009" lon="1.01798">
        <ele>128</ele>
        <time>2024-01-16T16:48:16Z</time>
      </trkpt>
      <trkpt lat="47.80056" lon="1.01815">
        <ele>128</ele>
        <time>2024-01-16T16:49:04Z</time>
      </trkpt>
      <trkpt lat="47.80036" lon="1.01829">
        <ele>127</ele>
        <time>2024-01-16T16:49:33Z</time>
      </trkpt>
      <trkpt lat="47.80029" lon="1.01854">
        <ele>127</ele>
        <time>2024-01-16T16:49:57Z</time>
      </trkpt>
      <trkpt lat="47.80018" lon="1.01854">
        <ele>127</ele>
        <time>2024-01-16T16:50:12Z</time>
      </trkpt>
      <trkpt lat="47.79984" lon="1.01872">
        <ele>126</ele>
        <time>2024-01-16T16:51:00Z</time>
      </trkpt>
      <trkpt lat="47.79945" lon="1.01895">
        <ele>124</ele>
        <time>2024-01-16T16:51:56Z</time>
      </trkpt>
      <trkpt lat="47.79977" lon="1.01982">
        <ele>127</ele>
        <time>2024-01-16T16:53:25Z</time>
      </trkpt>
      <trkpt lat="47.79986" lon="1.02008">
        <ele>127</ele>
        <time>2024-01-16T16:53:51Z</time>
      </trkpt>
      <trkpt lat="47.79994" lon="1.02044">
        <ele>127</ele>
        <time>2024-01-16T16:54:25Z</time>
      </trkpt>
      <trkpt lat="47.80032" lon="1.0214">
        <ele>128</ele>
        <time>2024-01-16T16:56:05Z</time>
      </trkpt>
      <trkpt lat="47.80079" lon="1.021">
        <ele>130</ele>
        <time>2024-01-16T16:57:17Z</time>
      </trkpt>
      <trkpt lat="47.80128" lon="1.02067">
        <ele>130</ele>
        <time>2024-01-16T16:58:29Z</time>
      </trkpt>
      <trkpt lat="47.8015" lon="1.02048">
        <ele>130</ele>
        <time>2024-01-16T16:59:03Z</time>
      </trkpt>
      <trkpt lat="47.8017" lon="1.0202">
        <ele>130</ele>
        <time>2024-01-16T16:59:40Z</time>
      </trkpt>
      <trkpt lat="47.80217" lon="1.02077">
        <ele>130</ele>
        <time>2024-01-16T17:01:01Z</time>
      </trkpt>
      <trkpt lat="47.80254" lon="1.02126">
        <ele>130</ele>
        <time>2024-01-16T17:02:07Z</time>
      </trkpt>
      <trkpt lat="47.80264" lon="1.02133">
        <ele>130</ele>
        <time>2024-01-16T17:02:21Z</time>
      </trkpt>
      <trkpt lat="47.80311" lon="1.0213">
        <ele>130</ele>
        <time>2024-01-16T17:03:24Z</time>
      </trkpt>
      <trkpt lat="47.80346" lon="1.02126">
        <ele>130</ele>
        <time>2024-01-16T17:04:11Z</time>
      </trkpt>
      <trkpt lat="47.80393" lon="1.02099">
        <ele>130</ele>
        <time>2024-01-16T17:05:18Z</time>
      </trkpt>
      <trkpt lat="47.8043" lon="1.02079">
        <ele>128</ele>
        <time>2024-01-16T17:06:11Z</time>
      </trkpt>
      <trkpt lat="47.80466" lon="1.02069">
        <ele>127</ele>
        <time>2024-01-16T17:07:00Z</time>
      </trkpt>
      <trkpt lat="47.80513" lon="1.02064">
        <ele>125</ele>
        <time>2024-01-16T17:08:03Z</time>
      </trkpt>
      <trkpt lat="47.8056" lon="1.02061">
        <ele>125</ele>
        <time>2024-01-16T17:09:05Z</time>
      </trkpt>
      <trkpt lat="47.8059" lon="1.02053">
        <ele>124</ele>
        <time>2024-01-16T17:09:46Z</time>
      </trkpt>
      <trkpt lat="47.8063" lon="1.02091">
        <ele>125</ele>
        <time>2024-01-16T17:10:49Z</time>
      </trkpt>
      <trkpt lat="47.80654" lon="1.02103">
        <ele>124</ele>
        <time>2024-01-16T17:11:23Z</time>
      </trkpt>
      <trkpt lat="47.807" lon="1.02107">
        <ele>126</ele>
        <time>2024-01-16T17:12:25Z</time>
      </trkpt>
      <trkpt lat="47.80746" lon="1.02112">
        <ele>129</ele>
        <time>2024-01-16T17:13:26Z</time>
      </trkpt>
      <trkpt lat="47.80776" lon="1.02117">
        <ele>130</ele>
        <time>2024-01-16T17:14:06Z</time>
      </trkpt>
      <trkpt lat="47.80778" lon="1.02172">
        <ele>130</ele>
        <time>2024-01-16T17:14:56Z</time>
      </trkpt>
      <trkpt lat="47.8078" lon="1.02227">
        <ele>131</ele>
        <time>2024-01-16T17:15:45Z</time>
      </trkpt>
      <trkpt lat="47.80782" lon="1.02284">
        <ele>132</ele>
        <time>2024-01-16T17:16:36Z</time>
      </trkpt>
      <trkpt lat="47.80784" lon="1.02342">
        <ele>133</ele>
        <time>2024-01-16T17:17:28Z</time>
      </trkpt>
      <trkpt lat="47.80786" lon="1.02409">
        <ele>133</ele>
        <time>2024-01-16T17:18:29Z</time>
      </trkpt>
      <trkpt lat="47.80746" lon="1.02443">
        <ele>132</ele>
        <time>2024-01-16T17:19:30Z</time>
      </trkpt>
      <trkpt lat="47.80707" lon="1.02475">
        <ele>133</ele>
        <time>2024-01-16T17:20:29Z</time>
      </trkpt>
      <trkpt lat="47.80667" lon="1.02509">
        <ele>134</ele>
        <time>2024-01-16T17:21:31Z</time>
      </trkpt>
      <trkpt lat="47.80629" lon="1.0254">
        <ele>134</ele>
        <time>2024-01-16T17:22:29Z</time>
      </trkpt>
      <trkpt lat="47.80607" lon="1.02558">
        <ele>134</ele>
        <time>2024-01-16T17:23:02Z</time>
      </trkpt>
      <trkpt lat="47.80583" lon="1.02578">
        <ele>133</ele>
        <time>2024-01-16T17:23:39Z</time>
      </trkpt>
      <trkpt lat="47.80548" lon="1.02587">
        <ele>132</ele>
        <time>2024-01-16T17:24:26Z</time>
      </trkpt>
      <trkpt lat="47.80514" lon="1.02596">
        <ele>131</ele>
        <time>2024-01-16T17:25:12Z</time>
      </trkpt>
      <trkpt lat="47.80479" lon="1.02605">
        <ele>131</ele>
        <time>2024-01-16T17:26:00Z</time>
      </trkpt>
      <trkpt lat="47.80444" lon="1.02614">
        <ele>131</ele>
        <time>2024-01-16T17:26:47Z</time>
      </trkpt>
      <trkpt lat="47.80421" lon="1.0262">
        <ele>131</ele>
        <time>2024-01-16T17:27:18Z</time>
      </trkpt>
      <trkpt lat="47.80421" lon="1.02613">
        <ele>131</ele>
        <time>2024-01-16T17:27:25Z</time>
      </trkpt>
      <trkpt lat="47.80379" lon="1.02631">
        <ele>131</ele>
        <time>2024-01-16T17:28:23Z</time>
      </trkpt>
      <trkpt lat="47.80341" lon="1.02647">
        <ele>131</ele>
        <time>2024-01-16T17:29:16Z</time>
      </trkpt>
      <trkpt lat="47.80354" lon="1.02697">
        <ele>130</ele>
        <time>2024-01-16T17:30:04Z</time>
      </trkpt>
      <trkpt lat="47.80353" lon="1.02709">
        <ele>129</ele>
        <time>2024-01-16T17:30:15Z</time>
      </trkpt>
      <trkpt lat="47.80372" lon="1.0279">
        <ele>125</ele>
        <time>2024-01-16T17:31:31Z</time>
      </trkpt>
      <trkpt lat="47.80378" lon="1.02816">
        <ele>124</ele>
        <time>2024-01-16T17:31:56Z</time>
      </trkpt>
      <trkpt lat="47.80387" lon="1.02811">
        <ele>124</ele>
        <time>2024-01-16T17:32:09Z</time>
      </trkpt>
      <trkpt lat="47.80415" lon="1.02897">
        <ele>120</ele>
        <time>2024-01-16T17:33:35Z</time>
      </trkpt>
      <trkpt lat="47.80444" lon="1.02985">
        <ele>117</ele>
        <time>2024-01-16T17:35:02Z</time>
      </trkpt>
      <trkpt lat="47.80449" lon="1.02995">
        <ele>117</ele>
        <time>2024-01-16T17:35:14Z</time>
      </trkpt>
      <trkpt lat="47.80449" lon="1.0308">
        <ele>113</ele>
        <time>2024-01-16T17:36:30Z</time>
      </trkpt>
      <trkpt lat="47.80453" lon="1.03154">
        <ele>108</ele>
        <time>2024-01-16T17:37:36Z</time>
      </trkpt>
      <trkpt lat="47.80465" lon="1.03197">
        <ele>106</ele>
        <time>2024-01-16T17:38:18Z</time>
      </trkpt>
      <trkpt lat="47.80482" lon="1.03229">
        <ele>106</ele>
        <time>2024-01-16T17:38:55Z</time>
      </trkpt>
      <trkpt lat="47.80467" lon="1.03315">
        <ele>101</ele>
        <time>2024-01-16T17:40:14Z</time>
      </trkpt>
      <trkpt lat="47.80452" lon="1.03401">
        <ele>94</ele>
        <time>2024-01-16T17:41:34Z</time>
      </trkpt>
      <trkpt lat="47.80445" lon="1.03476">
        <ele>89</ele>
        <time>2024-01-16T17:42:42Z</time>
      </trkpt>
      <trkpt lat="47.80445" lon="1.0352">
        <ele>87</ele>
        <time>2024-01-16T17:43:21Z</time>
      </trkpt>
      <trkpt lat="47.80405" lon="1.03534">
        <ele>85</ele>
        <time>2024-01-16T17:44:16Z</time>
      </trkpt>
      <trkpt lat="47.80364" lon="1.03544">
        <ele>84</ele>
        <time>2024-01-16T17:45:11Z</time>
      </trkpt>
      <trkpt lat="47.80336" lon="1.03553">
        <ele>83</ele>
        <time>2024-01-16T17:45:50Z</time>
      </trkpt>
      <trkpt lat="47.80333" lon="1.03477">
        <ele>82</ele>
        <time>2024-01-16T17:46:58Z</time>
      </trkpt>
    </trkseg>
  </trk>
</gpx>